sensor_id;sensor_type;location;lat;lon;timestamp;P1;durP1;ratioP1;P2;durP2;ratioP2
52186;SDS011;38161;53.020;6.598;2023-05-21T00:00:57;7.15;;;6.28;;
52186;SDS011;38161;53.020;6.598;2023-05-21T00:03:24;7.72;;;6.78;;
52186;SDS011;38161;53.020;6.598;2023-05-21T00:05:52;8.35;;;7.55;;
52186;SDS011;38161;53.020;6.598;2023-05-21T00:10:44;8.93;;;6.53;;
52186;SDS011;38161;53.020;6.598;2023-05-21T00:13:10;7.65;;;6.57;;
52186;SDS011;38161;53.020;6.598;2023-05-21T00:15:36;7.82;;;7.05;;
52186;SDS011;38161;53.020;6.598;2023-05-21T00:18:03;9.88;;;7.75;;
52186;SDS011;38161;53.020;6.598;2023-05-21T00:20:29;8.43;;;7.63;;
52186;SDS011;38161;53.020;6.598;2023-05-21T00:22:56;9.00;;;7.03;;
52186;SDS011;38161;53.020;6.598;2023-05-21T00:25:29;8.70;;;7.90;;
52186;SDS011;38161;53.020;6.598;2023-05-21T00:27:55;8.18;;;7.47;;
52186;SDS011;38161;53.020;6.598;2023-05-21T00:30:21;8.50;;;7.80;;
52186;SDS011;38161;53.020;6.598;2023-05-21T00:32:47;8.73;;;7.60;;
52186;SDS011;38161;53.020;6.598;2023-05-21T00:35:13;7.53;;;6.78;;
52186;SDS011;38161;53.020;6.598;2023-05-21T00:37:39;9.40;;;7.82;;
52186;SDS011;38161;53.020;6.598;2023-05-21T00:40:05;7.95;;;7.18;;
52186;SDS011;38161;53.020;6.598;2023-05-21T00:42:33;8.65;;;7.78;;
52186;SDS011;38161;53.020;6.598;2023-05-21T00:45:03;7.97;;;7.28;;
52186;SDS011;38161;53.020;6.598;2023-05-21T00:47:30;8.85;;;7.95;;
52186;SDS011;38161;53.020;6.598;2023-05-21T00:49:56;8.63;;;7.65;;
52186;SDS011;38161;53.020;6.598;2023-05-21T00:52:22;7.82;;;7.03;;
52186;SDS011;38161;53.020;6.598;2023-05-21T00:54:50;8.52;;;7.32;;
52186;SDS011;38161;53.020;6.598;2023-05-21T00:57:21;10.57;;;7.93;;
52186;SDS011;38161;53.020;6.598;2023-05-21T00:59:49;8.00;;;7.30;;
52186;SDS011;38161;53.020;6.598;2023-05-21T01:02:16;8.15;;;7.40;;
52186;SDS011;38161;53.020;6.598;2023-05-21T01:04:43;8.88;;;7.57;;
52186;SDS011;38161;53.020;6.598;2023-05-21T01:07:09;8.50;;;7.78;;
52186;SDS011;38161;53.020;6.598;2023-05-21T01:09:35;8.85;;;7.75;;
52186;SDS011;38161;53.020;6.598;2023-05-21T01:12:01;9.90;;;8.90;;
52186;SDS011;38161;53.020;6.598;2023-05-21T01:14:28;8.90;;;7.65;;
52186;SDS011;38161;53.020;6.598;2023-05-21T01:16:56;7.65;;;6.95;;
52186;SDS011;38161;53.020;6.598;2023-05-21T01:19:23;8.90;;;7.88;;
52186;SDS011;38161;53.020;6.598;2023-05-21T01:21:51;11.23;;;8.65;;
52186;SDS011;38161;53.020;6.598;2023-05-21T01:24:20;9.23;;;8.20;;
52186;SDS011;38161;53.020;6.598;2023-05-21T01:26:46;9.02;;;8.05;;
52186;SDS011;38161;53.020;6.598;2023-05-21T01:29:12;9.18;;;8.27;;
52186;SDS011;38161;53.020;6.598;2023-05-21T01:34:12;9.45;;;7.00;;
52186;SDS011;38161;53.020;6.598;2023-05-21T01:36:42;8.25;;;7.45;;
52186;SDS011;38161;53.020;6.598;2023-05-21T01:39:18;8.77;;;7.82;;
52186;SDS011;38161;53.020;6.598;2023-05-21T01:41:57;10.43;;;8.38;;
52186;SDS011;38161;53.020;6.598;2023-05-21T01:44:27;8.80;;;7.95;;
52186;SDS011;38161;53.020;6.598;2023-05-21T01:46:53;10.57;;;8.00;;
52186;SDS011;38161;53.020;6.598;2023-05-21T01:49:21;8.75;;;7.80;;
52186;SDS011;38161;53.020;6.598;2023-05-21T01:51:47;8.38;;;7.25;;
52186;SDS011;38161;53.020;6.598;2023-05-21T01:54:13;9.18;;;8.10;;
52186;SDS011;38161;53.020;6.598;2023-05-21T01:56:39;8.57;;;7.50;;
52186;SDS011;38161;53.020;6.598;2023-05-21T01:59:05;8.75;;;7.88;;
52186;SDS011;38161;53.020;6.598;2023-05-21T02:01:31;8.57;;;7.72;;
52186;SDS011;38161;53.020;6.598;2023-05-21T02:03:57;9.32;;;8.43;;
52186;SDS011;38161;53.020;6.598;2023-05-21T02:06:22;9.45;;;8.55;;
52186;SDS011;38161;53.020;6.598;2023-05-21T02:08:48;11.07;;;8.30;;
52186;SDS011;38161;53.020;6.598;2023-05-21T02:11:14;9.25;;;8.05;;
52186;SDS011;38161;53.020;6.598;2023-05-21T02:13:40;10.73;;;8.88;;
52186;SDS011;38161;53.020;6.598;2023-05-21T02:18:36;10.98;;;7.03;;
52186;SDS011;38161;53.020;6.598;2023-05-21T02:23:28;7.75;;;6.80;;
52186;SDS011;38161;53.020;6.598;2023-05-21T02:25:53;9.27;;;7.97;;
52186;SDS011;38161;53.020;6.598;2023-05-21T02:28:19;7.68;;;6.97;;
52186;SDS011;38161;53.020;6.598;2023-05-21T02:30:45;9.40;;;8.50;;
52186;SDS011;38161;53.020;6.598;2023-05-21T02:33:11;9.60;;;8.48;;
52186;SDS011;38161;53.020;6.598;2023-05-21T02:35:38;9.23;;;8.27;;
52186;SDS011;38161;53.020;6.598;2023-05-21T02:38:04;10.43;;;8.70;;
52186;SDS011;38161;53.020;6.598;2023-05-21T02:40:30;10.07;;;8.07;;
52186;SDS011;38161;53.020;6.598;2023-05-21T02:42:57;10.73;;;8.90;;
52186;SDS011;38161;53.020;6.598;2023-05-21T02:45:22;9.95;;;7.85;;
52186;SDS011;38161;53.020;6.598;2023-05-21T02:47:48;9.55;;;8.25;;
52186;SDS011;38161;53.020;6.598;2023-05-21T02:50:14;9.90;;;8.05;;
52186;SDS011;38161;53.020;6.598;2023-05-21T02:52:40;10.38;;;8.85;;
52186;SDS011;38161;53.020;6.598;2023-05-21T02:55:06;11.82;;;8.43;;
52186;SDS011;38161;53.020;6.598;2023-05-21T02:57:32;11.25;;;8.98;;
52186;SDS011;38161;53.020;6.598;2023-05-21T02:59:58;9.70;;;8.77;;
52186;SDS011;38161;53.020;6.598;2023-05-21T03:02:23;9.68;;;8.20;;
52186;SDS011;38161;53.020;6.598;2023-05-21T03:04:49;9.73;;;8.60;;
52186;SDS011;38161;53.020;6.598;2023-05-21T03:07:15;10.95;;;9.05;;
52186;SDS011;38161;53.020;6.598;2023-05-21T03:09:44;10.93;;;9.65;;
52186;SDS011;38161;53.020;6.598;2023-05-21T03:12:10;9.80;;;8.43;;
52186;SDS011;38161;53.020;6.598;2023-05-21T03:14:36;10.20;;;9.15;;
52186;SDS011;38161;53.020;6.598;2023-05-21T03:19:34;9.13;;;7.80;;
52186;SDS011;38161;53.020;6.598;2023-05-21T03:22:00;10.65;;;8.30;;
52186;SDS011;38161;53.020;6.598;2023-05-21T03:24:27;9.70;;;8.52;;
52186;SDS011;38161;53.020;6.598;2023-05-21T03:26:54;9.82;;;8.82;;
52186;SDS011;38161;53.020;6.598;2023-05-21T03:29:20;10.30;;;8.25;;
52186;SDS011;38161;53.020;6.598;2023-05-21T03:31:46;9.43;;;8.52;;
52186;SDS011;38161;53.020;6.598;2023-05-21T03:34:12;10.85;;;9.75;;
52186;SDS011;38161;53.020;6.598;2023-05-21T03:36:37;11.82;;;9.25;;
52186;SDS011;38161;53.020;6.598;2023-05-21T03:39:03;12.68;;;8.35;;
52186;SDS011;38161;53.020;6.598;2023-05-21T03:41:29;9.98;;;8.23;;
52186;SDS011;38161;53.020;6.598;2023-05-21T03:43:55;10.73;;;9.07;;
52186;SDS011;38161;53.020;6.598;2023-05-21T03:46:20;12.27;;;8.70;;
52186;SDS011;38161;53.020;6.598;2023-05-21T03:48:46;8.75;;;7.90;;
52186;SDS011;38161;53.020;6.598;2023-05-21T03:51:15;9.07;;;8.13;;
52186;SDS011;38161;53.020;6.598;2023-05-21T03:56:07;8.70;;;7.55;;
52186;SDS011;38161;53.020;6.598;2023-05-21T03:58:33;9.40;;;8.30;;
52186;SDS011;38161;53.020;6.598;2023-05-21T04:00:59;10.77;;;8.27;;
52186;SDS011;38161;53.020;6.598;2023-05-21T04:03:28;10.02;;;8.93;;
52186;SDS011;38161;53.020;6.598;2023-05-21T04:05:56;12.05;;;8.63;;
52186;SDS011;38161;53.020;6.598;2023-05-21T04:08:22;11.98;;;8.80;;
52186;SDS011;38161;53.020;6.598;2023-05-21T04:10:48;13.93;;;9.15;;
52186;SDS011;38161;53.020;6.598;2023-05-21T04:13:13;10.40;;;8.30;;
52186;SDS011;38161;53.020;6.598;2023-05-21T04:15:39;11.35;;;8.63;;
52186;SDS011;38161;53.020;6.598;2023-05-21T04:18:07;9.80;;;8.45;;
52186;SDS011;38161;53.020;6.598;2023-05-21T04:20:33;13.52;;;9.48;;
52186;SDS011;38161;53.020;6.598;2023-05-21T04:22:59;10.68;;;9.48;;
52186;SDS011;38161;53.020;6.598;2023-05-21T04:25:25;9.95;;;8.90;;
52186;SDS011;38161;53.020;6.598;2023-05-21T04:27:50;10.98;;;8.93;;
52186;SDS011;38161;53.020;6.598;2023-05-21T04:30:19;11.63;;;8.88;;
52186;SDS011;38161;53.020;6.598;2023-05-21T04:32:44;9.73;;;8.55;;
52186;SDS011;38161;53.020;6.598;2023-05-21T04:35:12;9.70;;;8.70;;
52186;SDS011;38161;53.020;6.598;2023-05-21T04:37:39;12.90;;;8.95;;
52186;SDS011;38161;53.020;6.598;2023-05-21T04:40:10;10.20;;;8.55;;
52186;SDS011;38161;53.020;6.598;2023-05-21T04:42:42;10.82;;;8.75;;
52186;SDS011;38161;53.020;6.598;2023-05-21T04:45:10;11.32;;;8.50;;
52186;SDS011;38161;53.020;6.598;2023-05-21T04:47:36;12.43;;;8.88;;
52186;SDS011;38161;53.020;6.598;2023-05-21T04:50:02;10.18;;;8.05;;
52186;SDS011;38161;53.020;6.598;2023-05-21T04:52:29;11.38;;;8.93;;
52186;SDS011;38161;53.020;6.598;2023-05-21T04:54:55;11.00;;;8.70;;
52186;SDS011;38161;53.020;6.598;2023-05-21T04:57:22;11.30;;;8.27;;
52186;SDS011;38161;53.020;6.598;2023-05-21T04:59:50;10.10;;;9.00;;
52186;SDS011;38161;53.020;6.598;2023-05-21T05:02:16;10.23;;;8.07;;
52186;SDS011;38161;53.020;6.598;2023-05-21T05:04:42;10.20;;;9.07;;
52186;SDS011;38161;53.020;6.598;2023-05-21T05:07:08;10.65;;;8.38;;
52186;SDS011;38161;53.020;6.598;2023-05-21T05:09:34;10.02;;;8.55;;
52186;SDS011;38161;53.020;6.598;2023-05-21T05:12:00;10.73;;;9.15;;
52186;SDS011;38161;53.020;6.598;2023-05-21T05:14:26;9.88;;;7.78;;
52186;SDS011;38161;53.020;6.598;2023-05-21T05:16:51;13.77;;;10.43;;
52186;SDS011;38161;53.020;6.598;2023-05-21T05:19:18;11.30;;;9.27;;
52186;SDS011;38161;53.020;6.598;2023-05-21T05:21:44;9.85;;;8.65;;
52186;SDS011;38161;53.020;6.598;2023-05-21T05:24:10;10.25;;;8.82;;
52186;SDS011;38161;53.020;6.598;2023-05-21T05:26:36;9.57;;;8.45;;
52186;SDS011;38161;53.020;6.598;2023-05-21T05:29:02;8.98;;;7.75;;
52186;SDS011;38161;53.020;6.598;2023-05-21T05:31:28;10.35;;;8.40;;
52186;SDS011;38161;53.020;6.598;2023-05-21T05:33:54;10.57;;;8.45;;
52186;SDS011;38161;53.020;6.598;2023-05-21T05:36:19;9.18;;;8.23;;
52186;SDS011;38161;53.020;6.598;2023-05-21T05:38:46;10.20;;;8.18;;
52186;SDS011;38161;53.020;6.598;2023-05-21T05:41:12;11.05;;;8.93;;
52186;SDS011;38161;53.020;6.598;2023-05-21T05:43:37;10.75;;;9.32;;
52186;SDS011;38161;53.020;6.598;2023-05-21T05:46:03;10.93;;;9.63;;
52186;SDS011;38161;53.020;6.598;2023-05-21T05:48:29;11.85;;;8.80;;
52186;SDS011;38161;53.020;6.598;2023-05-21T05:50:55;10.85;;;8.82;;
52186;SDS011;38161;53.020;6.598;2023-05-21T05:53:21;10.35;;;8.82;;
52186;SDS011;38161;53.020;6.598;2023-05-21T05:55:47;10.05;;;8.35;;
52186;SDS011;38161;53.020;6.598;2023-05-21T05:58:12;10.60;;;9.25;;
52186;SDS011;38161;53.020;6.598;2023-05-21T06:00:38;10.27;;;7.88;;
52186;SDS011;38161;53.020;6.598;2023-05-21T06:03:04;11.55;;;8.68;;
52186;SDS011;38161;53.020;6.598;2023-05-21T06:05:30;9.85;;;8.85;;
52186;SDS011;38161;53.020;6.598;2023-05-21T06:07:56;11.68;;;8.68;;
52186;SDS011;38161;53.020;6.598;2023-05-21T06:10:21;10.52;;;9.30;;
52186;SDS011;38161;53.020;6.598;2023-05-21T06:12:47;10.98;;;7.88;;
52186;SDS011;38161;53.020;6.598;2023-05-21T06:15:13;8.65;;;7.60;;
52186;SDS011;38161;53.020;6.598;2023-05-21T06:17:40;8.80;;;7.90;;
52186;SDS011;38161;53.020;6.598;2023-05-21T06:20:09;9.60;;;8.63;;
52186;SDS011;38161;53.020;6.598;2023-05-21T06:22:36;10.40;;;9.18;;
52186;SDS011;38161;53.020;6.598;2023-05-21T06:25:02;10.77;;;9.70;;
52186;SDS011;38161;53.020;6.598;2023-05-21T06:27:28;9.77;;;8.77;;
52186;SDS011;38161;53.020;6.598;2023-05-21T06:29:54;11.48;;;8.90;;
52186;SDS011;38161;53.020;6.598;2023-05-21T06:32:21;9.70;;;8.70;;
52186;SDS011;38161;53.020;6.598;2023-05-21T06:34:48;10.32;;;9.27;;
52186;SDS011;38161;53.020;6.598;2023-05-21T06:37:17;9.90;;;8.93;;
52186;SDS011;38161;53.020;6.598;2023-05-21T06:39:45;10.52;;;9.38;;
52186;SDS011;38161;53.020;6.598;2023-05-21T06:42:11;11.25;;;9.13;;
52186;SDS011;38161;53.020;6.598;2023-05-21T06:44:36;11.30;;;9.57;;
52186;SDS011;38161;53.020;6.598;2023-05-21T06:47:02;10.02;;;9.02;;
52186;SDS011;38161;53.020;6.598;2023-05-21T06:49:28;11.73;;;9.57;;
52186;SDS011;38161;53.020;6.598;2023-05-21T06:51:55;10.00;;;9.00;;
52186;SDS011;38161;53.020;6.598;2023-05-21T06:54:21;11.05;;;9.30;;
52186;SDS011;38161;53.020;6.598;2023-05-21T06:56:46;10.75;;;9.55;;
52186;SDS011;38161;53.020;6.598;2023-05-21T06:59:12;12.20;;;10.32;;
52186;SDS011;38161;53.020;6.598;2023-05-21T07:01:38;10.77;;;9.77;;
52186;SDS011;38161;53.020;6.598;2023-05-21T07:04:06;10.98;;;9.43;;
52186;SDS011;38161;53.020;6.598;2023-05-21T07:09:00;9.02;;;8.00;;
52186;SDS011;38161;53.020;6.598;2023-05-21T07:11:26;10.57;;;9.30;;
52186;SDS011;38161;53.020;6.598;2023-05-21T07:13:56;11.80;;;9.23;;
52186;SDS011;38161;53.020;6.598;2023-05-21T07:16:24;11.43;;;9.38;;
52186;SDS011;38161;53.020;6.598;2023-05-21T07:18:50;11.55;;;10.32;;
52186;SDS011;38161;53.020;6.598;2023-05-21T07:21:16;10.52;;;9.57;;
52186;SDS011;38161;53.020;6.598;2023-05-21T07:23:41;11.10;;;10.00;;
52186;SDS011;38161;53.020;6.598;2023-05-21T07:26:08;12.25;;;10.80;;
52186;SDS011;38161;53.020;6.598;2023-05-21T07:28:34;10.60;;;9.43;;
52186;SDS011;38161;53.020;6.598;2023-05-21T07:31:00;10.80;;;9.77;;
52186;SDS011;38161;53.020;6.598;2023-05-21T07:33:26;11.57;;;9.93;;
52186;SDS011;38161;53.020;6.598;2023-05-21T07:35:52;12.85;;;10.60;;
52186;SDS011;38161;53.020;6.598;2023-05-21T07:38:18;13.38;;;12.10;;
52186;SDS011;38161;53.020;6.598;2023-05-21T07:40:44;12.70;;;11.00;;
52186;SDS011;38161;53.020;6.598;2023-05-21T07:43:10;12.02;;;11.00;;
52186;SDS011;38161;53.020;6.598;2023-05-21T07:45:36;13.55;;;12.13;;
52186;SDS011;38161;53.020;6.598;2023-05-21T07:48:02;13.23;;;11.95;;
52186;SDS011;38161;53.020;6.598;2023-05-21T07:50:28;13.05;;;11.68;;
52186;SDS011;38161;53.020;6.598;2023-05-21T07:52:54;12.77;;;11.35;;
52186;SDS011;38161;53.020;6.598;2023-05-21T07:55:19;11.60;;;10.38;;
52186;SDS011;38161;53.020;6.598;2023-05-21T07:57:45;11.13;;;10.23;;
52186;SDS011;38161;53.020;6.598;2023-05-21T08:00:11;11.00;;;9.90;;
52186;SDS011;38161;53.020;6.598;2023-05-21T08:02:38;13.40;;;12.30;;
52186;SDS011;38161;53.020;6.598;2023-05-21T08:05:04;13.95;;;12.70;;
52186;SDS011;38161;53.020;6.598;2023-05-21T08:07:30;12.43;;;11.32;;
52186;SDS011;38161;53.020;6.598;2023-05-21T08:09:56;13.73;;;12.65;;
52186;SDS011;38161;53.020;6.598;2023-05-21T08:12:23;14.38;;;12.82;;
52186;SDS011;38161;53.020;6.598;2023-05-21T08:14:49;13.23;;;11.93;;
52186;SDS011;38161;53.020;6.598;2023-05-21T08:17:15;17.83;;;16.33;;
52186;SDS011;38161;53.020;6.598;2023-05-21T08:19:41;12.93;;;11.77;;
52186;SDS011;38161;53.020;6.598;2023-05-21T08:22:07;14.63;;;13.45;;
52186;SDS011;38161;53.020;6.598;2023-05-21T08:24:33;13.85;;;12.63;;
52186;SDS011;38161;53.020;6.598;2023-05-21T08:26:59;15.85;;;14.30;;
52186;SDS011;38161;53.020;6.598;2023-05-21T08:29:25;15.18;;;13.52;;
52186;SDS011;38161;53.020;6.598;2023-05-21T08:31:51;14.98;;;13.68;;
52186;SDS011;38161;53.020;6.598;2023-05-21T08:34:16;16.23;;;13.93;;
52186;SDS011;38161;53.020;6.598;2023-05-21T08:36:42;18.35;;;16.52;;
52186;SDS011;38161;53.020;6.598;2023-05-21T08:39:10;15.55;;;14.05;;
52186;SDS011;38161;53.020;6.598;2023-05-21T08:41:39;15.75;;;14.43;;
52186;SDS011;38161;53.020;6.598;2023-05-21T08:44:10;16.95;;;15.52;;
52186;SDS011;38161;53.020;6.598;2023-05-21T08:46:38;17.02;;;15.50;;
52186;SDS011;38161;53.020;6.598;2023-05-21T08:49:05;19.65;;;18.13;;
52186;SDS011;38161;53.020;6.598;2023-05-21T08:51:36;17.23;;;15.70;;
52186;SDS011;38161;53.020;6.598;2023-05-21T08:54:03;16.65;;;15.25;;
52186;SDS011;38161;53.020;6.598;2023-05-21T08:56:33;15.68;;;14.45;;
52186;SDS011;38161;53.020;6.598;2023-05-21T08:59:00;16.42;;;15.07;;
52186;SDS011;38161;53.020;6.598;2023-05-21T09:01:26;17.88;;;16.02;;
52186;SDS011;38161;53.020;6.598;2023-05-21T09:03:54;19.13;;;17.42;;
52186;SDS011;38161;53.020;6.598;2023-05-21T09:06:21;17.83;;;16.30;;
52186;SDS011;38161;53.020;6.598;2023-05-21T09:08:52;18.48;;;17.02;;
52186;SDS011;38161;53.020;6.598;2023-05-21T09:11:23;19.60;;;18.08;;
52186;SDS011;38161;53.020;6.598;2023-05-21T09:13:49;18.60;;;17.20;;
52186;SDS011;38161;53.020;6.598;2023-05-21T09:16:16;19.50;;;17.58;;
52186;SDS011;38161;53.020;6.598;2023-05-21T09:18:42;17.77;;;16.33;;
52186;SDS011;38161;53.020;6.598;2023-05-21T09:21:24;20.02;;;18.40;;
52186;SDS011;38161;53.020;6.598;2023-05-21T09:23:57;18.60;;;16.77;;
52186;SDS011;38161;53.020;6.598;2023-05-21T09:26:24;18.25;;;16.95;;
52186;SDS011;38161;53.020;6.598;2023-05-21T09:28:51;19.75;;;18.20;;
52186;SDS011;38161;53.020;6.598;2023-05-21T09:31:24;19.48;;;18.02;;
52186;SDS011;38161;53.020;6.598;2023-05-21T09:33:51;20.55;;;18.75;;
52186;SDS011;38161;53.020;6.598;2023-05-21T09:36:18;20.90;;;19.13;;
52186;SDS011;38161;53.020;6.598;2023-05-21T09:38:44;22.98;;;21.38;;
52186;SDS011;38161;53.020;6.598;2023-05-21T09:41:12;20.63;;;18.88;;
52186;SDS011;38161;53.020;6.598;2023-05-21T09:43:40;19.63;;;17.90;;
52186;SDS011;38161;53.020;6.598;2023-05-21T09:46:08;21.55;;;19.77;;
52186;SDS011;38161;53.020;6.598;2023-05-21T09:48:34;22.52;;;20.77;;
52186;SDS011;38161;53.020;6.598;2023-05-21T09:53:34;24.33;;;22.70;;
52186;SDS011;38161;53.020;6.598;2023-05-21T09:56:01;22.08;;;20.38;;
52186;SDS011;38161;53.020;6.598;2023-05-21T09:58:27;21.77;;;19.92;;
52186;SDS011;38161;53.020;6.598;2023-05-21T10:00:53;23.58;;;21.90;;
52186;SDS011;38161;53.020;6.598;2023-05-21T10:03:20;21.98;;;20.38;;
52186;SDS011;38161;53.020;6.598;2023-05-21T10:05:49;22.30;;;20.70;;
52186;SDS011;38161;53.020;6.598;2023-05-21T10:08:17;22.40;;;20.75;;
52186;SDS011;38161;53.020;6.598;2023-05-21T10:10:46;24.23;;;22.30;;
52186;SDS011;38161;53.020;6.598;2023-05-21T10:13:13;22.80;;;21.33;;
52186;SDS011;38161;53.020;6.598;2023-05-21T10:15:45;23.05;;;21.38;;
52186;SDS011;38161;53.020;6.598;2023-05-21T10:18:17;24.52;;;22.58;;
52186;SDS011;38161;53.020;6.598;2023-05-21T10:20:45;23.55;;;21.40;;
52186;SDS011;38161;53.020;6.598;2023-05-21T10:23:11;26.50;;;24.38;;
52186;SDS011;38161;53.020;6.598;2023-05-21T10:25:38;25.52;;;23.48;;
52186;SDS011;38161;53.020;6.598;2023-05-21T10:28:05;27.65;;;25.65;;
52186;SDS011;38161;53.020;6.598;2023-05-21T10:30:31;26.67;;;24.80;;
52186;SDS011;38161;53.020;6.598;2023-05-21T10:32:58;25.42;;;23.58;;
52186;SDS011;38161;53.020;6.598;2023-05-21T10:35:25;25.90;;;24.00;;
52186;SDS011;38161;53.020;6.598;2023-05-21T10:37:52;26.67;;;24.85;;
52186;SDS011;38161;53.020;6.598;2023-05-21T10:40:19;29.02;;;27.13;;
52186;SDS011;38161;53.020;6.598;2023-05-21T10:43:07;28.75;;;26.85;;
52186;SDS011;38161;53.020;6.598;2023-05-21T10:56:41;31.63;;;29.33;;
52186;SDS011;38161;53.020;6.598;2023-05-21T11:00:00;29.25;;;27.02;;
52186;SDS011;38161;53.020;6.598;2023-05-21T11:02:19;33.05;;;30.48;;
52186;SDS011;38161;53.020;6.598;2023-05-21T11:04:56;32.13;;;29.85;;
52186;SDS011;38161;53.020;6.598;2023-05-21T11:07:27;30.40;;;28.15;;
52186;SDS011;38161;53.020;6.598;2023-05-21T11:13:15;28.67;;;26.40;;
52186;SDS011;38161;53.020;6.598;2023-05-21T11:21:03;34.05;;;31.45;;
52186;SDS011;38161;53.020;6.598;2023-05-21T11:23:50;33.67;;;31.02;;
52186;SDS011;38161;53.020;6.598;2023-05-21T11:26:57;31.85;;;29.60;;
52186;SDS011;38161;53.020;6.598;2023-05-21T11:29:19;33.97;;;31.67;;
52186;SDS011;38161;53.020;6.598;2023-05-21T11:32:00;36.47;;;34.05;;
52186;SDS011;38161;53.020;6.598;2023-05-21T11:34:40;36.65;;;34.08;;
52186;SDS011;38161;53.020;6.598;2023-05-21T11:42:41;38.58;;;35.70;;
52186;SDS011;38161;53.020;6.598;2023-05-21T11:45:08;36.55;;;33.88;;
52186;SDS011;38161;53.020;6.598;2023-05-21T11:47:34;38.97;;;36.45;;
52186;SDS011;38161;53.020;6.598;2023-05-21T11:50:01;36.40;;;33.72;;
52186;SDS011;38161;53.020;6.598;2023-05-21T11:52:28;39.67;;;36.95;;
52186;SDS011;38161;53.020;6.598;2023-05-21T11:54:56;39.15;;;36.60;;
52186;SDS011;38161;53.020;6.598;2023-05-21T11:57:26;39.35;;;36.40;;
52186;SDS011;38161;53.020;6.598;2023-05-21T11:59:55;38.17;;;35.58;;
52186;SDS011;38161;53.020;6.598;2023-05-21T12:02:23;43.13;;;40.40;;
52186;SDS011;38161;53.020;6.598;2023-05-21T12:04:51;41.22;;;38.22;;
52186;SDS011;38161;53.020;6.598;2023-05-21T12:07:18;41.67;;;38.40;;
52186;SDS011;38161;53.020;6.598;2023-05-21T12:09:45;44.92;;;41.67;;
52186;SDS011;38161;53.020;6.598;2023-05-21T12:12:19;47.55;;;44.53;;
52186;SDS011;38161;53.020;6.598;2023-05-21T12:14:47;42.60;;;39.67;;
52186;SDS011;38161;53.020;6.598;2023-05-21T12:17:14;48.28;;;44.90;;
52186;SDS011;38161;53.020;6.598;2023-05-21T12:19:41;59.20;;;54.90;;
52186;SDS011;38161;53.020;6.598;2023-05-21T12:22:08;50.30;;;46.67;;
52186;SDS011;38161;53.020;6.598;2023-05-21T12:24:34;47.47;;;44.10;;
52186;SDS011;38161;53.020;6.598;2023-05-21T12:27:02;44.75;;;41.65;;
52186;SDS011;38161;53.020;6.598;2023-05-21T12:29:33;47.25;;;43.78;;
52186;SDS011;38161;53.020;6.598;2023-05-21T12:32:03;42.58;;;39.63;;
52186;SDS011;38161;53.020;6.598;2023-05-21T12:37:14;57.28;;;53.17;;
52186;SDS011;38161;53.020;6.598;2023-05-21T12:39:48;46.38;;;42.75;;
52186;SDS011;38161;53.020;6.598;2023-05-21T12:42:16;48.15;;;44.65;;
52186;SDS011;38161;53.020;6.598;2023-05-21T12:44:50;49.80;;;46.58;;
52186;SDS011;38161;53.020;6.598;2023-05-21T12:47:17;53.00;;;49.28;;
52186;SDS011;38161;53.020;6.598;2023-05-21T12:49:45;58.92;;;54.45;;
52186;SDS011;38161;53.020;6.598;2023-05-21T12:52:16;54.42;;;50.85;;
52186;SDS011;38161;53.020;6.598;2023-05-21T12:54:44;56.63;;;46.25;;
52186;SDS011;38161;53.020;6.598;2023-05-21T12:57:14;56.83;;;52.45;;
52186;SDS011;38161;53.020;6.598;2023-05-21T13:02:25;53.00;;;48.92;;
52186;SDS011;38161;53.020;6.598;2023-05-21T13:04:58;50.13;;;46.75;;
52186;SDS011;38161;53.020;6.598;2023-05-21T13:07:26;59.00;;;54.65;;
52186;SDS011;38161;53.020;6.598;2023-05-21T13:09:53;55.30;;;51.33;;
52186;SDS011;38161;53.020;6.598;2023-05-21T13:12:20;60.38;;;54.17;;
52186;SDS011;38161;53.020;6.598;2023-05-21T13:14:50;56.60;;;52.33;;
52186;SDS011;38161;53.020;6.598;2023-05-21T13:17:17;60.00;;;55.63;;
52186;SDS011;38161;53.020;6.598;2023-05-21T13:20:31;71.60;;;66.05;;
52186;SDS011;38161;53.020;6.598;2023-05-21T13:22:46;58.33;;;54.42;;
52186;SDS011;38161;53.020;6.598;2023-05-21T13:25:14;64.07;;;59.63;;
52186;SDS011;38161;53.020;6.598;2023-05-21T13:27:52;61.45;;;51.70;;
52186;SDS011;38161;53.020;6.598;2023-05-21T13:32:44;49.25;;;45.67;;
52186;SDS011;38161;53.020;6.598;2023-05-21T13:35:10;55.72;;;51.30;;
52186;SDS011;38161;53.020;6.598;2023-05-21T13:37:39;62.22;;;57.53;;
52186;SDS011;38161;53.020;6.598;2023-05-21T13:40:06;61.70;;;55.65;;
52186;SDS011;38161;53.020;6.598;2023-05-21T13:42:35;55.65;;;51.28;;
52186;SDS011;38161;53.020;6.598;2023-05-21T13:45:08;56.15;;;52.42;;
52186;SDS011;38161;53.020;6.598;2023-05-21T13:47:36;63.95;;;59.45;;
52186;SDS011;38161;53.020;6.598;2023-05-21T13:50:02;60.13;;;55.85;;
52186;SDS011;38161;53.020;6.598;2023-05-21T13:52:28;67.35;;;62.50;;
52186;SDS011;38161;53.020;6.598;2023-05-21T13:54:54;61.35;;;56.97;;
52186;SDS011;38161;53.020;6.598;2023-05-21T13:57:19;63.63;;;58.97;;
52186;SDS011;38161;53.020;6.598;2023-05-21T13:59:45;68.53;;;60.63;;
52186;SDS011;38161;53.020;6.598;2023-05-21T14:02:12;56.65;;;52.78;;
52186;SDS011;38161;53.020;6.598;2023-05-21T14:04:37;67.43;;;61.90;;
52186;SDS011;38161;53.020;6.598;2023-05-21T14:07:03;55.92;;;51.30;;
52186;SDS011;38161;53.020;6.598;2023-05-21T14:09:29;73.45;;;61.58;;
52186;SDS011;38161;53.020;6.598;2023-05-21T14:11:55;67.70;;;60.83;;
52186;SDS011;38161;53.020;6.598;2023-05-21T14:16:48;58.45;;;53.30;;
52186;SDS011;38161;53.020;6.598;2023-05-21T14:19:14;63.60;;;58.63;;
52186;SDS011;38161;53.020;6.598;2023-05-21T14:21:43;70.65;;;63.70;;
52186;SDS011;38161;53.020;6.598;2023-05-21T14:24:09;60.38;;;56.00;;
52186;SDS011;38161;53.020;6.598;2023-05-21T14:26:36;68.25;;;63.10;;
52186;SDS011;38161;53.020;6.598;2023-05-21T14:29:04;65.60;;;60.63;;
52186;SDS011;38161;53.020;6.598;2023-05-21T14:31:30;67.80;;;62.95;;
52186;SDS011;38161;53.020;6.598;2023-05-21T14:33:55;71.05;;;65.82;;
52186;SDS011;38161;53.020;6.598;2023-05-21T14:36:21;90.50;;;81.95;;
52186;SDS011;38161;53.020;6.598;2023-05-21T14:38:47;76.82;;;71.13;;
52186;SDS011;38161;53.020;6.598;2023-05-21T14:41:13;84.05;;;63.95;;
52186;SDS011;38161;53.020;6.598;2023-05-21T14:43:38;97.63;;;90.35;;
52186;SDS011;38161;53.020;6.598;2023-05-21T14:46:04;73.07;;;67.25;;
52186;SDS011;38161;53.020;6.598;2023-05-21T14:48:30;63.00;;;58.30;;
52186;SDS011;38161;53.020;6.598;2023-05-21T14:50:55;91.90;;;78.63;;
52186;SDS011;38161;53.020;6.598;2023-05-21T14:53:21;88.60;;;79.55;;
52186;SDS011;38161;53.020;6.598;2023-05-21T14:55:47;66.57;;;61.38;;
52186;SDS011;38161;53.020;6.598;2023-05-21T14:58:13;80.20;;;71.85;;
52186;SDS011;38161;53.020;6.598;2023-05-21T15:00:38;91.63;;;84.05;;
52186;SDS011;38161;53.020;6.598;2023-05-21T15:03:04;86.30;;;79.30;;
52186;SDS011;38161;53.020;6.598;2023-05-21T15:07:57;68.45;;;59.83;;
52186;SDS011;38161;53.020;6.598;2023-05-21T15:10:24;80.38;;;73.78;;
52186;SDS011;38161;53.020;6.598;2023-05-21T15:12:51;82.63;;;76.05;;
52186;SDS011;38161;53.020;6.598;2023-05-21T15:15:17;89.47;;;81.32;;
52186;SDS011;38161;53.020;6.598;2023-05-21T15:17:45;74.55;;;69.00;;
52186;SDS011;38161;53.020;6.598;2023-05-21T15:20:12;76.95;;;69.70;;
52186;SDS011;38161;53.020;6.598;2023-05-21T15:22:38;68.63;;;62.88;;
52186;SDS011;38161;53.020;6.598;2023-05-21T15:25:04;66.22;;;61.25;;
52186;SDS011;38161;53.020;6.598;2023-05-21T15:27:30;103.07;;;94.63;;
52186;SDS011;38161;53.020;6.598;2023-05-21T15:29:56;71.85;;;66.13;;